sensor_id;sensor_type;location;lat;lon;timestamp;P1;durP1;ratioP1;P2;durP2;ratioP2
71490;SDS011;59307;50.060;9.150;2023-11-21T00:00:35;7.33;;;2.60;;
71490;SDS011;59307;50.060;9.150;2023-11-21T00:03:00;6.40;;;2.73;;
71490;SDS011;59307;50.060;9.150;2023-11-21T00:05:25;8.40;;;2.70;;
71490;SDS011;59307;50.060;9.150;2023-11-21T00:07:51;7.97;;;2.97;;
71490;SDS011;59307;50.060;9.150;2023-11-21T00:10:16;13.27;;;3.47;;
71490;SDS011;59307;50.060;9.150;2023-11-21T00:12:41;9.30;;;2.73;;
71490;SDS011;59307;50.060;9.150;2023-11-21T00:15:07;9.23;;;2.92;;
71490;SDS011;59307;50.060;9.150;2023-11-21T00:17:38;9.37;;;2.70;;
71490;SDS011;59307;50.060;9.150;2023-11-21T00:20:04;9.53;;;2.73;;
71490;SDS011;59307;50.060;9.150;2023-11-21T00:22:31;6.50;;;2.30;;
71490;SDS011;59307;50.060;9.150;2023-11-21T00:24:57;7.38;;;3.00;;
71490;SDS011;59307;50.060;9.150;2023-11-21T00:27:22;7.70;;;2.63;;
71490;SDS011;59307;50.060;9.150;2023-11-21T00:29:47;6.20;;;2.77;;
71490;SDS011;59307;50.060;9.150;2023-11-21T00:32:13;4.97;;;2.80;;
71490;SDS011;59307;50.060;9.150;2023-11-21T00:34:38;9.13;;;3.00;;
71490;SDS011;59307;50.060;9.150;2023-11-21T00:37:03;8.03;;;3.33;;
71490;SDS011;59307;50.060;9.150;2023-11-21T00:39:29;5.83;;;2.90;;
71490;SDS011;59307;50.060;9.150;2023-11-21T00:41:54;8.83;;;2.97;;
71490;SDS011;59307;50.060;9.150;2023-11-21T00:44:19;8.50;;;3.00;;
71490;SDS011;59307;50.060;9.150;2023-11-21T00:46:44;12.53;;;4.10;;
71490;SDS011;59307;50.060;9.150;2023-11-21T00:49:09;12.53;;;4.47;;
71490;SDS011;59307;50.060;9.150;2023-11-21T00:51:34;9.60;;;3.67;;
71490;SDS011;59307;50.060;9.150;2023-11-21T00:54:00;6.95;;;3.20;;
71490;SDS011;59307;50.060;9.150;2023-11-21T00:56:26;7.33;;;3.40;;
71490;SDS011;59307;50.060;9.150;2023-11-21T00:58:51;8.25;;;3.22;;
71490;SDS011;59307;50.060;9.150;2023-11-21T01:01:18;7.77;;;2.97;;
71490;SDS011;59307;50.060;9.150;2023-11-21T01:03:43;9.35;;;3.67;;
71490;SDS011;59307;50.060;9.150;2023-11-21T01:06:08;9.73;;;3.40;;
71490;SDS011;59307;50.060;9.150;2023-11-21T01:08:34;11.57;;;3.80;;
71490;SDS011;59307;50.060;9.150;2023-11-21T01:10:59;5.67;;;3.27;;
71490;SDS011;59307;50.060;9.150;2023-11-21T01:13:24;8.80;;;3.50;;
71490;SDS011;59307;50.060;9.150;2023-11-21T01:15:54;10.73;;;3.90;;
71490;SDS011;59307;50.060;9.150;2023-11-21T01:18:19;10.55;;;3.60;;
71490;SDS011;59307;50.060;9.150;2023-11-21T01:20:45;8.83;;;3.93;;
71490;SDS011;59307;50.060;9.150;2023-11-21T01:23:11;10.90;;;3.50;;
71490;SDS011;59307;50.060;9.150;2023-11-21T01:25:37;12.97;;;4.30;;
71490;SDS011;59307;50.060;9.150;2023-11-21T01:28:02;15.37;;;4.80;;
71490;SDS011;59307;50.060;9.150;2023-11-21T01:30:27;10.53;;;4.00;;
71490;SDS011;59307;50.060;9.150;2023-11-21T01:32:52;10.43;;;3.50;;
71490;SDS011;59307;50.060;9.150;2023-11-21T01:35:17;14.63;;;3.70;;
71490;SDS011;59307;50.060;9.150;2023-11-21T01:37:43;8.60;;;3.40;;
71490;SDS011;59307;50.060;9.150;2023-11-21T01:40:08;11.63;;;4.90;;
71490;SDS011;59307;50.060;9.150;2023-11-21T01:42:38;13.50;;;4.40;;
71490;SDS011;59307;50.060;9.150;2023-11-21T01:45:03;10.63;;;3.90;;
71490;SDS011;59307;50.060;9.150;2023-11-21T01:47:30;8.57;;;3.42;;
71490;SDS011;59307;50.060;9.150;2023-11-21T01:49:55;8.60;;;2.97;;
71490;SDS011;59307;50.060;9.150;2023-11-21T01:52:21;8.97;;;2.90;;
71490;SDS011;59307;50.060;9.150;2023-11-21T01:54:46;9.57;;;3.27;;
71490;SDS011;59307;50.060;9.150;2023-11-21T01:57:12;9.45;;;4.03;;
71490;SDS011;59307;50.060;9.150;2023-11-21T01:59:38;9.93;;;3.43;;
71490;SDS011;59307;50.060;9.150;2023-11-21T02:02:04;10.30;;;3.83;;
71490;SDS011;59307;50.060;9.150;2023-11-21T02:04:30;10.07;;;3.67;;
71490;SDS011;59307;50.060;9.150;2023-11-21T02:06:56;7.68;;;3.25;;
71490;SDS011;59307;50.060;9.150;2023-11-21T02:09:27;7.50;;;3.10;;
71490;SDS011;59307;50.060;9.150;2023-11-21T02:11:54;7.03;;;3.00;;
71490;SDS011;59307;50.060;9.150;2023-11-21T02:14:20;9.63;;;3.07;;
71490;SDS011;59307;50.060;9.150;2023-11-21T02:16:50;6.78;;;2.53;;
71490;SDS011;59307;50.060;9.150;2023-11-21T02:19:18;9.20;;;3.20;;
71490;SDS011;59307;50.060;9.150;2023-11-21T02:21:51;8.05;;;2.85;;
71490;SDS011;59307;50.060;9.150;2023-11-21T02:24:22;7.68;;;2.50;;
71490;SDS011;59307;50.060;9.150;2023-11-21T02:26:47;5.60;;;2.40;;
71490;SDS011;59307;50.060;9.150;2023-11-21T02:29:14;6.50;;;2.63;;
71490;SDS011;59307;50.060;9.150;2023-11-21T02:31:41;6.17;;;2.40;;
71490;SDS011;59307;50.060;9.150;2023-11-21T02:34:16;5.85;;;2.60;;
71490;SDS011;59307;50.060;9.150;2023-11-21T02:36:41;5.07;;;2.50;;
71490;SDS011;59307;50.060;9.150;2023-11-21T02:39:07;6.95;;;2.90;;
71490;SDS011;59307;50.060;9.150;2023-11-21T02:41:33;6.77;;;3.23;;
71490;SDS011;59307;50.060;9.150;2023-11-21T02:43:59;7.72;;;3.60;;
71490;SDS011;59307;50.060;9.150;2023-11-21T02:46:24;6.80;;;3.33;;
71490;SDS011;59307;50.060;9.150;2023-11-21T02:48:49;9.80;;;3.67;;
71490;SDS011;59307;50.060;9.150;2023-11-21T02:51:16;6.97;;;3.22;;
71490;SDS011;59307;50.060;9.150;2023-11-21T02:53:41;6.90;;;3.40;;
71490;SDS011;59307;50.060;9.150;2023-11-21T02:56:06;9.07;;;3.80;;
71490;SDS011;59307;50.060;9.150;2023-11-21T02:58:32;6.63;;;3.10;;
71490;SDS011;59307;50.060;9.150;2023-11-21T03:00:57;5.60;;;2.97;;
71490;SDS011;59307;50.060;9.150;2023-11-21T03:03:22;5.50;;;2.93;;
71490;SDS011;59307;50.060;9.150;2023-11-21T03:05:49;5.80;;;2.72;;
71490;SDS011;59307;50.060;9.150;2023-11-21T03:08:14;7.07;;;3.17;;
71490;SDS011;59307;50.060;9.150;2023-11-21T03:10:40;6.03;;;2.60;;
71490;SDS011;59307;50.060;9.150;2023-11-21T03:13:05;6.20;;;2.80;;
71490;SDS011;59307;50.060;9.150;2023-11-21T03:15:30;5.60;;;2.53;;
71490;SDS011;59307;50.060;9.150;2023-11-21T03:17:57;7.22;;;3.10;;
71490;SDS011;59307;50.060;9.150;2023-11-21T03:20:22;5.77;;;2.80;;
71490;SDS011;59307;50.060;9.150;2023-11-21T03:22:47;6.77;;;3.03;;
71490;SDS011;59307;50.060;9.150;2023-11-21T03:25:13;7.23;;;2.67;;
71490;SDS011;59307;50.060;9.150;2023-11-21T03:27:38;6.60;;;3.17;;
71490;SDS011;59307;50.060;9.150;2023-11-21T03:30:04;7.10;;;3.58;;
71490;SDS011;59307;50.060;9.150;2023-11-21T03:32:31;7.88;;;3.25;;
71490;SDS011;59307;50.060;9.150;2023-11-21T03:34:58;8.43;;;3.43;;
71490;SDS011;59307;50.060;9.150;2023-11-21T03:37:23;6.63;;;2.90;;
71490;SDS011;59307;50.060;9.150;2023-11-21T03:39:49;5.93;;;2.92;;
71490;SDS011;59307;50.060;9.150;2023-11-21T03:42:14;7.67;;;3.03;;
71490;SDS011;59307;50.060;9.150;2023-11-21T03:44:40;6.13;;;3.07;;
71490;SDS011;59307;50.060;9.150;2023-11-21T03:47:05;6.90;;;2.83;;
71490;SDS011;59307;50.060;9.150;2023-11-21T03:49:30;8.10;;;3.03;;
71490;SDS011;59307;50.060;9.150;2023-11-21T03:51:56;7.50;;;3.15;;
71490;SDS011;59307;50.060;9.150;2023-11-21T03:54:21;5.93;;;3.37;;
71490;SDS011;59307;50.060;9.150;2023-11-21T03:56:46;6.20;;;2.97;;
71490;SDS011;59307;50.060;9.150;2023-11-21T03:59:11;8.23;;;3.33;;
71490;SDS011;59307;50.060;9.150;2023-11-21T04:01:36;8.20;;;3.37;;
71490;SDS011;59307;50.060;9.150;2023-11-21T04:04:02;7.72;;;2.90;;
71490;SDS011;59307;50.060;9.150;2023-11-21T04:06:28;8.57;;;3.03;;
71490;SDS011;59307;50.060;9.150;2023-11-21T04:08:53;6.60;;;2.80;;
71490;SDS011;59307;50.060;9.150;2023-11-21T04:11:18;5.40;;;2.70;;
71490;SDS011;59307;50.060;9.150;2023-11-21T04:13:44;5.67;;;2.67;;
71490;SDS011;59307;50.060;9.150;2023-11-21T04:16:09;7.80;;;3.13;;
71490;SDS011;59307;50.060;9.150;2023-11-21T04:18:37;10.10;;;3.40;;
71490;SDS011;59307;50.060;9.150;2023-11-21T04:21:03;8.50;;;2.93;;
71490;SDS011;59307;50.060;9.150;2023-11-21T04:23:28;7.78;;;2.92;;
71490;SDS011;59307;50.060;9.150;2023-11-21T04:25:54;6.83;;;2.60;;
71490;SDS011;59307;50.060;9.150;2023-11-21T04:28:22;5.32;;;2.90;;
71490;SDS011;59307;50.060;9.150;2023-11-21T04:30:47;7.73;;;3.13;;
71490;SDS011;59307;50.060;9.150;2023-11-21T04:33:12;8.67;;;2.70;;
71490;SDS011;59307;50.060;9.150;2023-11-21T04:35:37;9.33;;;3.17;;
71490;SDS011;59307;50.060;9.150;2023-11-21T04:38:02;7.90;;;3.47;;
71490;SDS011;59307;50.060;9.150;2023-11-21T04:40:27;9.90;;;4.67;;
71490;SDS011;59307;50.060;9.150;2023-11-21T04:42:53;18.83;;;5.37;;
71490;SDS011;59307;50.060;9.150;2023-11-21T04:45:18;15.97;;;5.57;;
71490;SDS011;59307;50.060;9.150;2023-11-21T04:47:43;24.40;;;5.97;;
71490;SDS011;59307;50.060;9.150;2023-11-21T04:50:08;19.80;;;5.53;;
71490;SDS011;59307;50.060;9.150;2023-11-21T04:52:34;31.23;;;6.37;;
71490;SDS011;59307;50.060;9.150;2023-11-21T04:54:59;22.65;;;6.20;;
71490;SDS011;59307;50.060;9.150;2023-11-21T04:57:26;25.30;;;6.13;;
71490;SDS011;59307;50.060;9.150;2023-11-21T04:59:53;22.17;;;6.27;;
71490;SDS011;59307;50.060;9.150;2023-11-21T05:02:18;16.87;;;6.67;;
71490;SDS011;59307;50.060;9.150;2023-11-21T05:04:44;19.30;;;6.53;;
71490;SDS011;59307;50.060;9.150;2023-11-21T05:07:09;17.83;;;6.63;;
71490;SDS011;59307;50.060;9.150;2023-11-21T05:09:34;16.03;;;6.53;;
71490;SDS011;59307;50.060;9.150;2023-11-21T05:12:00;18.80;;;6.72;;
71490;SDS011;59307;50.060;9.150;2023-11-21T05:14:25;12.77;;;5.47;;
71490;SDS011;59307;50.060;9.150;2023-11-21T05:16:50;12.13;;;5.20;;
71490;SDS011;59307;50.060;9.150;2023-11-21T05:19:16;13.00;;;5.83;;
71490;SDS011;59307;50.060;9.150;2023-11-21T05:21:42;15.60;;;5.30;;
71490;SDS011;59307;50.060;9.150;2023-11-21T05:24:07;16.27;;;5.70;;
71490;SDS011;59307;50.060;9.150;2023-11-21T05:26:32;24.53;;;6.53;;
71490;SDS011;59307;50.060;9.150;2023-11-21T05:28:57;21.10;;;6.80;;
71490;SDS011;59307;50.060;9.150;2023-11-21T05:31:23;17.60;;;5.57;;
71490;SDS011;59307;50.060;9.150;2023-11-21T05:33:48;19.43;;;5.97;;
71490;SDS011;59307;50.060;9.150;2023-11-21T05:36:13;20.47;;;5.40;;
71490;SDS011;59307;50.060;9.150;2023-11-21T05:38:38;18.67;;;5.90;;
71490;SDS011;59307;50.060;9.150;2023-11-21T05:41:03;14.37;;;5.10;;
71490;SDS011;59307;50.060;9.150;2023-11-21T05:43:29;16.77;;;5.30;;
71490;SDS011;59307;50.060;9.150;2023-11-21T05:45:55;13.57;;;4.93;;
71490;SDS011;59307;50.060;9.150;2023-11-21T05:48:21;11.05;;;4.68;;
71490;SDS011;59307;50.060;9.150;2023-11-21T05:50:46;12.00;;;5.17;;
71490;SDS011;59307;50.060;9.150;2023-11-21T05:53:12;17.83;;;5.57;;
71490;SDS011;59307;50.060;9.150;2023-11-21T05:55:40;15.75;;;5.93;;
71490;SDS011;59307;50.060;9.150;2023-11-21T05:58:06;14.73;;;5.88;;
71490;SDS011;59307;50.060;9.150;2023-11-21T06:00:31;15.57;;;5.67;;
71490;SDS011;59307;50.060;9.150;2023-11-21T06:02:57;15.93;;;5.93;;
71490;SDS011;59307;50.060;9.150;2023-11-21T06:05:23;11.60;;;5.23;;
71490;SDS011;59307;50.060;9.150;2023-11-21T06:07:49;14.45;;;5.78;;
71490;SDS011;59307;50.060;9.150;2023-11-21T06:10:14;18.40;;;5.67;;
71490;SDS011;59307;50.060;9.150;2023-11-21T06:12:40;14.47;;;5.73;;
71490;SDS011;59307;50.060;9.150;2023-11-21T06:15:07;13.40;;;5.60;;
71490;SDS011;59307;50.060;9.150;2023-11-21T06:17:33;13.32;;;5.30;;
71490;SDS011;59307;50.060;9.150;2023-11-21T06:20:01;10.57;;;4.77;;
71490;SDS011;59307;50.060;9.150;2023-11-21T06:22:28;8.95;;;4.35;;
71490;SDS011;59307;50.060;9.150;2023-11-21T06:24:55;13.45;;;5.07;;
71490;SDS011;59307;50.060;9.150;2023-11-21T06:27:20;12.93;;;4.80;;
71490;SDS011;59307;50.060;9.150;2023-11-21T06:29:45;12.23;;;4.67;;
71490;SDS011;59307;50.060;9.150;2023-11-21T06:32:11;12.63;;;4.75;;
71490;SDS011;59307;50.060;9.150;2023-11-21T06:34:37;9.33;;;4.33;;
71490;SDS011;59307;50.060;9.150;2023-11-21T06:37:02;9.13;;;4.43;;
71490;SDS011;59307;50.060;9.150;2023-11-21T06:39:27;12.30;;;4.13;;
71490;SDS011;59307;50.060;9.150;2023-11-21T06:41:52;9.97;;;4.03;;
71490;SDS011;59307;50.060;9.150;2023-11-21T06:44:17;12.47;;;4.37;;
71490;SDS011;59307;50.060;9.150;2023-11-21T06:46:44;8.82;;;3.70;;
71490;SDS011;59307;50.060;9.150;2023-11-21T06:49:10;9.13;;;4.37;;
71490;SDS011;59307;50.060;9.150;2023-11-21T06:51:36;8.50;;;4.03;;
71490;SDS011;59307;50.060;9.150;2023-11-21T06:54:01;7.73;;;3.43;;
71490;SDS011;59307;50.060;9.150;2023-11-21T06:56:26;8.67;;;4.37;;
71490;SDS011;59307;50.060;9.150;2023-11-21T06:58:51;10.33;;;4.87;;
71490;SDS011;59307;50.060;9.150;2023-11-21T07:01:19;10.18;;;5.20;;
71490;SDS011;59307;50.060;9.150;2023-11-21T07:03:44;14.33;;;5.50;;
71490;SDS011;59307;50.060;9.150;2023-11-21T07:06:10;12.75;;;6.20;;
71490;SDS011;59307;50.060;9.150;2023-11-21T07:08:35;12.97;;;6.17;;
71490;SDS011;59307;50.060;9.150;2023-11-21T07:11:00;19.93;;;7.30;;
71490;SDS011;59307;50.060;9.150;2023-11-21T07:13:27;13.13;;;7.05;;
71490;SDS011;59307;50.060;9.150;2023-11-21T07:15:53;16.67;;;7.50;;
71490;SDS011;59307;50.060;9.150;2023-11-21T07:18:19;13.33;;;7.07;;
71490;SDS011;59307;50.060;9.150;2023-11-21T07:20:44;15.00;;;6.47;;
71490;SDS011;59307;50.060;9.150;2023-11-21T07:23:09;12.70;;;6.00;;
71490;SDS011;59307;50.060;9.150;2023-11-21T07:25:35;14.43;;;5.85;;
71490;SDS011;59307;50.060;9.150;2023-11-21T07:28:01;12.07;;;5.35;;
71490;SDS011;59307;50.060;9.150;2023-11-21T07:30:26;9.93;;;4.77;;
71490;SDS011;59307;50.060;9.150;2023-11-21T07:32:52;10.77;;;4.00;;
71490;SDS011;59307;50.060;9.150;2023-11-21T07:35:17;9.17;;;3.60;;
71490;SDS011;59307;50.060;9.150;2023-11-21T07:37:42;9.33;;;3.70;;
71490;SDS011;59307;50.060;9.150;2023-11-21T07:40:08;9.57;;;4.32;;
71490;SDS011;59307;50.060;9.150;2023-11-21T07:42:33;7.70;;;3.70;;
71490;SDS011;59307;50.060;9.150;2023-11-21T07:44:59;8.70;;;4.27;;
71490;SDS011;59307;50.060;9.150;2023-11-21T07:47:24;9.17;;;4.20;;
71490;SDS011;59307;50.060;9.150;2023-11-21T07:49:52;8.70;;;4.00;;
71490;SDS011;59307;50.060;9.150;2023-11-21T07:52:17;12.63;;;4.60;;
71490;SDS011;59307;50.060;9.150;2023-11-21T07:54:42;10.13;;;5.28;;
71490;SDS011;59307;50.060;9.150;2023-11-21T07:57:08;9.70;;;4.90;;
71490;SDS011;59307;50.060;9.150;2023-11-21T07:59:33;10.03;;;5.00;;
71490;SDS011;59307;50.060;9.150;2023-11-21T08:01:58;10.27;;;5.13;;
71490;SDS011;59307;50.060;9.150;2023-11-21T08:04:24;13.30;;;5.87;;
71490;SDS011;59307;50.060;9.150;2023-11-21T08:06:49;10.27;;;5.10;;
71490;SDS011;59307;50.060;9.150;2023-11-21T08:09:14;14.00;;;5.63;;
71490;SDS011;59307;50.060;9.150;2023-11-21T08:11:40;10.73;;;6.00;;
71490;SDS011;59307;50.060;9.150;2023-11-21T08:14:05;12.13;;;5.77;;
71490;SDS011;59307;50.060;9.150;2023-11-21T08:16:31;12.07;;;5.70;;
71490;SDS011;59307;50.060;9.150;2023-11-21T08:18:56;11.55;;;5.18;;
71490;SDS011;59307;50.060;9.150;2023-11-21T08:21:21;11.67;;;5.53;;
71490;SDS011;59307;50.060;9.150;2023-11-21T08:23:48;9.87;;;4.80;;
71490;SDS011;59307;50.060;9.150;2023-11-21T08:26:18;10.13;;;4.78;;
71490;SDS011;59307;50.060;9.150;2023-11-21T08:28:43;9.40;;;4.60;;
71490;SDS011;59307;50.060;9.150;2023-11-21T08:31:09;11.57;;;4.70;;
71490;SDS011;59307;50.060;9.150;2023-11-21T08:33:34;10.80;;;4.70;;
71490;SDS011;59307;50.060;9.150;2023-11-21T08:35:59;9.07;;;4.90;;
71490;SDS011;59307;50.060;9.150;2023-11-21T08:38:26;9.27;;;4.33;;
71490;SDS011;59307;50.060;9.150;2023-11-21T08:40:51;7.80;;;4.23;;
71490;SDS011;59307;50.060;9.150;2023-11-21T08:43:16;9.18;;;4.63;;
71490;SDS011;59307;50.060;9.150;2023-11-21T08:45:44;8.00;;;3.83;;
71490;SDS011;59307;50.060;9.150;2023-11-21T08:48:10;8.67;;;3.97;;
71490;SDS011;59307;50.060;9.150;2023-11-21T08:50:36;7.53;;;4.05;;
71490;SDS011;59307;50.060;9.150;2023-11-21T08:53:01;9.13;;;4.10;;
71490;SDS011;59307;50.060;9.150;2023-11-21T08:55:26;8.30;;;4.17;;
71490;SDS011;59307;50.060;9.150;2023-11-21T08:57:52;9.38;;;3.90;;
71490;SDS011;59307;50.060;9.150;2023-11-21T09:00:17;7.43;;;4.17;;
71490;SDS011;59307;50.060;9.150;2023-11-21T09:02:43;7.70;;;4.17;;
71490;SDS011;59307;50.060;9.150;2023-11-21T09:05:12;8.43;;;3.80;;
71490;SDS011;59307;50.060;9.150;2023-11-21T09:07:39;7.25;;;3.90;;
71490;SDS011;59307;50.060;9.150;2023-11-21T09:10:04;11.32;;;5.07;;
71490;SDS011;59307;50.060;9.150;2023-11-21T09:12:32;7.85;;;3.65;;
71490;SDS011;59307;50.060;9.150;2023-11-21T09:14:58;11.30;;;4.10;;
71490;SDS011;59307;50.060;9.150;2023-11-21T09:17:23;6.60;;;3.30;;
71490;SDS011;59307;50.060;9.150;2023-11-21T09:19:49;6.70;;;3.22;;
71490;SDS011;59307;50.060;9.150;2023-11-21T09:22:16;6.90;;;3.03;;
71490;SDS011;59307;50.060;9.150;2023-11-21T09:24:42;7.25;;;3.20;;
71490;SDS011;59307;50.060;9.150;2023-11-21T09:27:07;4.27;;;2.30;;
71490;SDS011;59307;50.060;9.150;2023-11-21T09:29:33;5.93;;;2.30;;
71490;SDS011;59307;50.060;9.150;2023-11-21T09:31:58;5.63;;;2.23;;
71490;SDS011;59307;50.060;9.150;2023-11-21T09:34:24;4.93;;;2.13;;
71490;SDS011;59307;50.060;9.150;2023-11-21T09:36:50;3.47;;;2.13;;
71490;SDS011;59307;50.060;9.150;2023-11-21T09:39:15;4.33;;;1.90;;
71490;SDS011;59307;50.060;9.150;2023-11-21T09:41:46;3.95;;;1.73;;
71490;SDS011;59307;50.060;9.150;2023-11-21T09:44:13;4.40;;;1.80;;
71490;SDS011;59307;50.060;9.150;2023-11-21T09:46:40;7.32;;;1.80;;
71490;SDS011;59307;50.060;9.150;2023-11-21T09:49:07;4.10;;;1.80;;
71490;SDS011;59307;50.060;9.150;2023-11-21T09:51:37;3.65;;;1.50;;
71490;SDS011;59307;50.060;9.150;2023-11-21T09:54:05;3.75;;;1.55;;
71490;SDS011;59307;50.060;9.150;2023-11-21T09:56:33;6.78;;;2.53;;
71490;SDS011;59307;50.060;9.150;2023-11-21T09:58:59;5.63;;;2.47;;
71490;SDS011;59307;50.060;9.150;2023-11-21T10:01:29;6.72;;;2.90;;
71490;SDS011;59307;50.060;9.150;2023-11-21T10:03:54;6.40;;;2.90;;
71490;SDS011;59307;50.060;9.150;2023-11-21T10:06:21;5.45;;;2.85;;
71490;SDS011;59307;50.060;9.150;2023-11-21T10:08:47;6.78;;;2.92;;
71490;SDS011;59307;50.060;9.150;2023-11-21T10:11:13;9.20;;;3.10;;
71490;SDS011;59307;50.060;9.150;2023-11-21T10:13:39;8.20;;;3.72;;
71490;SDS011;59307;50.060;9.150;2023-11-21T10:16:05;8.07;;;3.00;;
71490;SDS011;59307;50.060;9.150;2023-11-21T10:18:32;7.18;;;3.10;;
71490;SDS011;59307;50.060;9.150;2023-11-21T10:20:59;8.98;;;3.10;;
71490;SDS011;59307;50.060;9.150;2023-11-21T10:23:24;7.13;;;3.10;;
71490;SDS011;59307;50.060;9.150;2023-11-21T10:25:53;7.30;;;3.00;;
71490;SDS011;59307;50.060;9.150;2023-11-21T10:28:19;7.43;;;3.27;;
71490;SDS011;59307;50.060;9.150;2023-11-21T10:30:45;7.72;;;2.85;;
71490;SDS011;59307;50.060;9.150;2023-11-21T10:33:10;7.77;;;3.63;;
71490;SDS011;59307;50.060;9.150;2023-11-21T10:38:07;10.00;;;3.38;;
71490;SDS011;59307;50.060;9.150;2023-11-21T10:40:37;8.57;;;3.20;;
71490;SDS011;59307;50.060;9.150;2023-11-21T10:43:07;7.67;;;3.20;;
71490;SDS011;59307;50.060;9.150;2023-11-21T10:45:39;7.20;;;3.53;;
71490;SDS011;59307;50.060;9.150;2023-11-21T10:48:07;6.68;;;2.97;;
71490;SDS011;59307;50.060;9.150;2023-11-21T10:50:37;8.98;;;3.13;;
71490;SDS011;59307;50.060;9.150;2023-11-21T10:53:02;7.68;;;3.28;;
71490;SDS011;59307;50.060;9.150;2023-11-21T10:55:29;7.33;;;3.07;;
71490;SDS011;59307;50.060;9.150;2023-11-21T10:57:54;9.40;;;2.83;;
71490;SDS011;59307;50.060;9.150;2023-11-21T11:00:22;7.13;;;3.03;;
71490;SDS011;59307;50.060;9.150;2023-11-21T11:02:50;7.37;;;2.80;;
71490;SDS011;59307;50.060;9.150;2023-11-21T11:05:16;6.15;;;2.80;;
71490;SDS011;59307;50.060;9.150;2023-11-21T11:07:42;6.05;;;2.88;;
71490;SDS011;59307;50.060;9.150;2023-11-21T11:10:08;4.53;;;2.65;;
71490;SDS011;59307;50.060;9.150;2023-11-21T11:12:39;5.33;;;2.27;;
71490;SDS011;59307;50.060;9.150;2023-11-21T11:15:04;9.18;;;3.05;;
71490;SDS011;59307;50.060;9.150;2023-11-21T11:17:30;6.60;;;2.90;;
71490;SDS011;59307;50.060;9.150;2023-11-21T11:19:57;4.55;;;2.22;;
71490;SDS011;59307;50.060;9.150;2023-11-21T11:31:04;5.82;;;2.28;;
71490;SDS011;59307;50.060;9.150;2023-11-21T11:35:59;6.82;;;2.38;;
71490;SDS011;59307;50.060;9.150;2023-11-21T11:38:27;5.22;;;2.40;;
71490;SDS011;59307;50.060;9.150;2023-11-21T11:40:55;4.15;;;2.08;;
71490;SDS011;59307;50.060;9.150;2023-11-21T11:43:24;6.03;;;2.03;;
71490;SDS011;59307;50.060;9.150;2023-11-21T11:45:50;5.43;;;2.20;;
71490;SDS011;59307;50.060;9.150;2023-11-21T11:48:17;5.03;;;2.00;;
71490;SDS011;59307;50.060;9.150;2023-11-21T11:51:00;3.90;;;1.90;;
71490;SDS011;59307;50.060;9.150;2023-11-21T11:53:28;6.55;;;2.45;;
71490;SDS011;59307;50.060;9.150;2023-11-21T11:58:41;6.00;;;2.25;;
71490;SDS011;59307;50.060;9.150;2023-11-21T12:01:06;5.00;;;2.20;;
71490;SDS011;59307;50.060;9.150;2023-11-21T12:03:32;4.63;;;2.27;;
71490;SDS011;59307;50.060;9.150;2023-11-21T12:05:58;10.43;;;2.42;;
71490;SDS011;59307;50.060;9.150;2023-11-21T12:08:23;7.20;;;2.17;;
71490;SDS011;59307;50.060;9.150;2023-11-21T12:10:55;5.43;;;1.95;;
71490;SDS011;59307;50.060;9.150;2023-11-21T12:13:22;6.32;;;2.30;;
71490;SDS011;59307;50.060;9.150;2023-11-21T12:15:48;5.37;;;2.43;;
71490;SDS011;59307;50.060;9.150;2023-11-21T12:18:13;4.63;;;2.35;;
71490;SDS011;59307;50.060;9.150;2023-11-21T12:20:39;6.80;;;2.63;;
71490;SDS011;59307;50.060;9.150;2023-11-21T12:23:06;6.23;;;2.57;;
71490;SDS011;59307;50.060;9.150;2023-11-21T12:25:31;5.38;;;1.88;;
71490;SDS011;59307;50.060;9.150;2023-11-21T12:27:57;5.97;;;2.30;;
71490;SDS011;59307;50.060;9.150;2023-11-21T12:30:23;6.73;;;2.33;;
71490;SDS011;59307;50.060;9.150;2023-11-21T12:32:50;4.05;;;2.20;;
71490;SDS011;59307;50.060;9.150;2023-11-21T12:35:16;7.25;;;2.40;;
71490;SDS011;59307;50.060;9.150;2023-11-21T12:37:44;4.47;;;2.47;;
71490;SDS011;59307;50.060;9.150;2023-11-21T12:40:10;9.02;;;2.47;;
71490;SDS011;59307;50.060;9.150;2023-11-21T12:42:40;7.18;;;2.25;;
71490;SDS011;59307;50.060;9.150;2023-11-21T12:45:07;7.65;;;2.20;;
71490;SDS011;59307;50.060;9.150;2023-11-21T12:47:34;9.37;;;2.47;;
71490;SDS011;59307;50.060;9.150;2023-11-21T12:50:00;7.85;;;2.70;;
71490;SDS011;59307;50.060;9.150;2023-11-21T12:52:27;7.97;;;2.88;;
71490;SDS011;59307;50.060;9.150;2023-11-21T12:54:52;5.80;;;2.60;;
71490;SDS011;59307;50.060;9.150;2023-11-21T12:57:17;7.87;;;2.87;;
71490;SDS011;59307;50.060;9.150;2023-11-21T12:59:45;8.55;;;2.60;;
71490;SDS011;59307;50.060;9.150;2023-11-21T13:02:12;6.18;;;2.40;;
71490;SDS011;59307;50.060;9.150;2023-11-21T13:04:39;8.73;;;3.10;;
71490;SDS011;59307;50.060;9.150;2023-11-21T13:07:04;7.67;;;2.70;;
71490;SDS011;59307;50.060;9.150;2023-11-21T13:09:39;11.68;;;3.45;;
71490;SDS011;59307;50.060;9.150;2023-11-21T13:12:04;11.83;;;2.77;;
71490;SDS011;59307;50.060;9.150;2023-11-21T13:14:32;8.13;;;2.95;;
71490;SDS011;59307;50.060;9.150;2023-11-21T13:16:58;14.90;;;3.95;;
71490;SDS011;59307;50.060;9.150;2023-11-21T13:19:23;9.23;;;3.43;;
71490;SDS011;59307;50.060;9.150;2023-11-21T13:21:49;9.57;;;3.40;;
71490;SDS011;59307;50.060;9.150;2023-11-21T13:24:14;10.63;;;3.67;;
71490;SDS011;59307;50.060;9.150;2023-11-21T13:26:39;9.53;;;3.50;;
71490;SDS011;59307;50.060;9.150;2023-11-21T13:29:05;10.40;;;3.30;;
71490;SDS011;59307;50.060;9.150;2023-11-21T13:31:30;12.63;;;3.80;;
71490;SDS011;59307;50.060;9.150;2023-11-21T13:33:57;10.65;;;3.40;;
71490;SDS011;59307;50.060;9.150;2023-11-21T13:36:29;10.90;;;3.85;;
71490;SDS011;59307;50.060;9.150;2023-11-21T13:38:57;8.53;;;3.23;;
71490;SDS011;59307;50.060;9.150;2023-11-21T13:41:23;9.57;;;3.30;;
71490;SDS011;59307;50.060;9.150;2023-11-21T13:43:55;10.48;;;2.90;;
71490;SDS011;59307;50.060;9.150;2023-11-21T13:46:28;7.03;;;2.80;;
71490;SDS011;59307;50.060;9.150;2023-11-21T13:48:53;9.47;;;2.93;;
71490;SDS011;59307;50.060;9.150;2023-11-21T13:51:21;9.98;;;3.03;;
71490;SDS011;59307;50.060;9.150;2023-11-21T13:53:54;9.97;;;2.50;;
71490;SDS011;59307;50.060;9.150;2023-11-21T13:56:20;8.13;;;3.10;;
71490;SDS011;59307;50.060;9.150;2023-11-21T13:58:49;7.75;;;2.70;;
71490;SDS011;59307;50.060;9.150;2023-11-21T14:01:17;7.53;;;2.50;;
71490;SDS011;59307;50.060;9.150;2023-11-21T14:03:55;13.07;;;3.25;;
71490;SDS011;59307;50.060;9.150;2023-11-21T14:06:27;9.05;;;3.08;;
71490;SDS011;59307;50.060;9.150;2023-11-21T14:08:59;7.18;;;2.63;;
71490;SDS011;59307;50.060;9.150;2023-11-21T14:11:30;8.65;;;2.90;;
71490;SDS011;59307;50.060;9.150;2023-11-21T14:13:55;9.10;;;2.87;;
71490;SDS011;59307;50.060;9.150;2023-11-21T14:16:20;8.90;;;3.27;;
71490;SDS011;59307;50.060;9.150;2023-11-21T14:18:46;11.00;;;3.20;;
71490;SDS011;59307;50.060;9.150;2023-11-21T14:21:23;8.70;;;3.80;;
71490;SDS011;59307;50.060;9.150;2023-11-21T14:23:48;7.90;;;3.10;;
71490;SDS011;59307;50.060;9.150;2023-11-21T14:26:14;14.50;;;3.43;;
71490;SDS011;59307;50.060;9.150;2023-11-21T14:28:41;11.38;;;3.97;;
71490;SDS011;59307;50.060;9.150;2023-11-21T14:31:07;9.53;;;3.63;;
71490;SDS011;59307;50.060;9.150;2023-11-21T14:33:38;9.07;;;3.60;;
71490;SDS011;59307;50.060;9.150;2023-11-21T14:36:03;12.13;;;3.70;;
71490;SDS011;59307;50.060;9.150;2023-11-21T14:38:28;10.40;;;3.13;;
71490;SDS011;59307;50.060;9.150;2023-11-21T14:40:53;11.53;;;3.50;;
71490;SDS011;59307;50.060;9.150;2023-11-21T14:43:19;9.00;;;3.60;;
71490;SDS011;59307;50.060;9.150;2023-11-21T14:45:45;9.30;;;3.58;;
71490;SDS011;59307;50.060;9.150;2023-11-21T14:48:10;14.93;;;3.73;;
71490;SDS011;59307;50.060;9.150;2023-11-21T14:50:54;9.32;;;3.50;;
71490;SDS011;59307;50.060;9.150;2023-11-21T14:53:28;10.45;;;4.05;;